Storlien, Sweden

4:35 PM CET on November 24, 2014 (GMT +0100)
Roros | Change Station
CLOSE
Current Station
Airport
Location: Roros Lufthavn,
Elevation: 2054 ft
Nearby Weather Stations

Elev 2054 ft 62.58 °N, 11.34 °E | Updated 15 minutes ago

Light Snow
Light Snow
32 °F
Feels Like 28 °F
N
5
Wind Variable Wind from SW

Today
High -- | Low -- °F
--% Chance of Precip.
Yesterday
High -- | Low -- °F
Precip. -- in
8:59 AM 2:56 PM
Waxing Crescent, 6% visible
Pressure 29.68 in
Visibility 1.7 miles
Clouds Few 700 ft
Mostly Cloudy 2000 ft
Windchill 28 °F
Dew Point 32 °F
Humidity 100%
Rainfall 0.00 in
Snow Depth Not available.
UV 0 out of 12
Pollen Not available.
Air Quality Not available.
Flu Activity Not available.
METAR ENRO 241520Z 23004KT 2700 -SN FEW007 BKN020 00/00 Q1005

More Conditions Fewer Conditions

Pressure 29.68 in
Visibility 1.7 miles
Clouds Few 700 ft
Mostly Cloudy 2000 ft
Windchill 28 °F
Dew Point 32 °F
Humidity 100%
Rainfall 0.00 in
Snow Depth Not available.
UV 0 out of 12
Pollen Not available.
Air Quality Not available.
Flu Activity Not available.
METAR ENRO 241520Z 23004KT 2700 -SN FEW007 BKN020 00/00 Q1005

More Conditions Fewer Conditions

10-Day Weather Forecast

Almanac

Astronomy

Nov. 24, 2014 Rise Set
Actual Time
Civil Twilight
Nautical Twilight
Astronomical Twilight
Moon
Length of Visible Light
Length of Day
Tomorrow will be .
, % of the Moon is Illuminated

Today's Extremes

Country Highs Country Lows

Community

WunderPhotos

Upload Photos

1,773,361 photos uploaded!

WunderBlogs® & News

Nearby

Air Quality

  Air Quality AQ Index Pollutant
Not available.

Snow Depth

Station Depth Elevation

Earthquake Activity

City Distance Mag. Time & Date
Minimum magnitude displayed is 2.5.

Coastal Water Temperatures

Place Temperature

Nearby Weather Stations